Time;durP1;ratioP1;P1;durP2;ratioP2;P2;SDS_P1;SDS_P2;PMS_P1;PMS_P2;Temp;Humidity;BMP_temperature;BMP_pressure;BME280_temperature;BME280_humidity;BME280_pressure;Samples;Min_cycle;Max_cycle;Signal;HPM_P1;HPM_P2
2022/03/16 00:00:00;;;;;;;10.70;6.03;;;;;;;;;;5023546;28;20032;-67
2022/03/16 00:02:32;;;;;;;;;;;;;;;;;;5017933;28;20037;-66
2022/03/16 00:04:58;;;;;;;8.82;5.88;;;;;;;;;;5016620;28;19933;-67
2022/03/16 00:07:24;;;;;;;8.82;5.63;;;;;;;;;;5020784;28;20029;-66
2022/03/16 00:09:49;;;;;;;13.25;6.03;;;;;;;;;;5018839;28;20034;-66
2022/03/16 00:12:16;;;;;;;12.23;6.03;;;;;;;;;;5022123;28;20037;-66
2022/03/16 00:14:42;;;;;;;11.10;6.18;;;;;;;;;;5013361;28;20096;-67
2022/03/16 00:17:08;;;;;;;9.30;5.32;;;;;;;;;;5013659;28;20036;-66
2022/03/16 00:19:34;;;;;;;14.13;6.18;;;;;;;;;;5026289;28;20128;-67
2022/03/16 00:22:02;;;;;;;12.13;6.25;;;;;;;;;;5018031;28;20487;-67
2022/03/16 00:24:28;;;;;;;9.48;5.82;;;;;;;;;;5020502;28;20514;-67
2022/03/16 00:26:54;;;;;;;13.07;5.50;;;;;;;;;;5014089;28;20091;-67
2022/03/16 00:29:19;;;;;;;12.07;5.78;;;;;;;;;;5014526;28;20040;-67
2022/03/16 00:31:45;;;;;;;11.80;5.78;;;;;;;;;;5019745;28;20033;-67
2022/03/16 00:34:10;;;;;;;9.82;5.80;;;;;;;;;;5016483;28;20050;-66
2022/03/16 00:36:36;;;;;;;9.45;5.45;;;;;;;;;;5018941;28;20025;-67
2022/03/16 00:39:03;;;;;;;11.10;5.85;;;;;;;;;;5020610;28;20112;-67
2022/03/16 00:41:28;;;;;;;10.20;5.88;;;;;;;;;;5012011;28;20068;-66
2022/03/16 00:43:54;;;;;;;15.25;5.70;;;;;;;;;;5018468;28;20070;-67
2022/03/16 00:46:20;;;;;;;12.02;5.68;;;;;;;;;;5015649;28;20422;-67
2022/03/16 00:48:46;;;;;;;11.65;5.93;;;;;;;;;;5019750;28;20116;-66
2022/03/16 00:51:12;;;;;;;8.30;5.03;;;;;;;;;;5019693;28;20112;-67
2022/03/16 00:53:39;;;;;;;9.68;6.32;;;;;;;;;;5014002;28;20494;-66
2022/03/16 00:56:07;;;;;;;10.07;5.45;;;;;;;;;;5014650;28;20759;-66
2022/03/16 00:58:32;;;;;;;7.40;5.60;;;;;;;;;;5021771;28;20036;-67
2022/03/16 01:00:59;;;;;;;10.88;5.55;;;;;;;;;;5018496;28;20034;-67
2022/03/16 01:03:25;;;;;;;10.00;5.80;;;;;;;;;;5019718;28;20486;-67
2022/03/16 01:05:51;;;;;;;12.30;5.80;;;;;;;;;;5018990;28;20045;-67
2022/03/16 01:08:17;;;;;;;10.82;5.78;;;;;;;;;;5019794;28;20033;-66
2022/03/16 01:10:43;;;;;;;12.90;5.90;;;;;;;;;;5030968;28;20593;-66
2022/03/16 01:13:08;;;;;;;10.45;6.13;;;;;;;;;;5019870;28;20060;-66
2022/03/16 01:15:34;;;;;;;9.57;5.90;;;;;;;;;;5024274;28;20043;-66
2022/03/16 01:18:00;;;;;;;6.95;5.50;;;;;;;;;;5019162;28;20385;-67
2022/03/16 01:20:26;;;;;;;10.18;5.90;;;;;;;;;;5021742;28;20058;-67
2022/03/16 01:22:51;;;;;;;10.50;5.57;;;;;;;;;;5025231;28;20030;-67
2022/03/16 01:25:17;;;;;;;14.35;5.38;;;;;;;;;;5023954;28;20105;-67
2022/03/16 01:27:43;;;;;;;11.43;5.90;;;;;;;;;;5020829;28;20033;-67
2022/03/16 01:30:09;;;;;;;13.25;5.32;;;;;;;;;;5024944;28;20068;-66
2022/03/16 01:32:35;;;;;;;9.68;6.10;;;;;;;;;;5019635;28;20088;-67
2022/03/16 01:35:01;;;;;;;9.98;5.90;;;;;;;;;;5021133;28;20045;-67
2022/03/16 01:37:27;;;;;;;13.93;5.75;;;;;;;;;;5015369;28;20064;-66
2022/03/16 01:39:53;;;;;;;11.32;5.20;;;;;;;;;;5016020;28;20069;-67
2022/03/16 01:42:20;;;;;;;16.10;5.60;;;;;;;;;;5022912;28;20028;-66
2022/03/16 01:44:49;;;;;;;9.23;5.22;;;;;;;;;;5022453;28;20029;-66
2022/03/16 01:47:17;;;;;;;8.98;5.43;;;;;;;;;;5020278;28;20049;-67
2022/03/16 01:49:44;;;;;;;11.55;5.57;;;;;;;;;;5019920;28;20026;-66
2022/03/16 01:52:11;;;;;;;10.63;5.15;;;;;;;;;;5016242;28;20061;-66
2022/03/16 01:54:40;;;;;;;9.30;5.25;;;;;;;;;;5020538;28;20041;-67
2022/03/16 01:57:07;;;;;;;10.63;5.80;;;;;;;;;;5017255;28;20068;-66
2022/03/16 01:59:33;;;;;;;10.15;5.78;;;;;;;;;;5018509;28;20060;-67
2022/03/16 02:01:59;;;;;;;10.85;5.50;;;;;;;;;;5011388;28;20065;-67
2022/03/16 02:04:25;;;;;;;17.27;5.93;;;;;;;;;;5014158;28;20101;-67
2022/03/16 02:06:50;;;;;;;11.20;5.05;;;;;;;;;;5023552;28;20052;-67
2022/03/16 02:09:16;;;;;;;11.63;5.93;;;;;;;;;;5024851;28;20053;-67
2022/03/16 02:11:42;;;;;;;10.35;5.43;;;;;;;;;;5016193;28;20052;-67
2022/03/16 02:14:08;;;;;;;13.90;5.78;;;;;;;;;;5016125;28;20026;-67
2022/03/16 02:16:34;;;;;;;12.73;5.03;;;;;;;;;;5016826;28;20034;-67
2022/03/16 02:19:00;;;;;;;13.90;5.63;;;;;;;;;;5021131;28;20064;-67
2022/03/16 02:21:28;;;;;;;9.57;5.15;;;;;;;;;;5019311;28;20471;-65
2022/03/16 02:23:53;;;;;;;12.38;5.30;;;;;;;;;;5019764;28;20112;-67
2022/03/16 02:26:25;;;;;;;14.63;5.43;;;;;;;;;;5013964;28;20068;-67
2022/03/16 02:28:50;;;;;;;9.23;5.20;;;;;;;;;;5022156;28;20037;-67
2022/03/16 02:31:17;;;;;;;14.70;6.03;;;;;;;;;;5018630;28;20068;-67
2022/03/16 02:33:43;;;;;;;10.52;5.55;;;;;;;;;;5016755;28;20052;-67
2022/03/16 02:36:09;;;;;;;10.30;5.38;;;;;;;;;;5019530;28;20127;-67
2022/03/16 02:38:35;;;;;;;11.02;6.03;;;;;;;;;;5013308;28;20029;-67
2022/03/16 02:41:01;;;;;;;8.95;5.80;;;;;;;;;;5019324;28;20033;-67
2022/03/16 02:43:27;;;;;;;10.65;5.25;;;;;;;;;;5030072;28;20022;-66
2022/03/16 02:45:54;;;;;;;11.98;5.63;;;;;;;;;;5028172;28;20123;-67
2022/03/16 02:48:20;;;;;;;17.52;5.80;;;;;;;;;;5032231;28;20031;-67
2022/03/16 02:50:47;;;;;;;8.55;5.45;;;;;;;;;;5022681;28;20025;-67
2022/03/16 02:53:14;;;;;;;9.15;5.10;;;;;;;;;;5023665;28;20033;-67
2022/03/16 02:55:41;;;;;;;12.75;5.40;;;;;;;;;;5019660;28;20026;-66
2022/03/16 02:58:07;;;;;;;7.90;5.38;;;;;;;;;;5029830;28;20022;-66
2022/03/16 03:00:34;;;;;;;9.05;5.20;;;;;;;;;;5023717;28;20033;-67
2022/03/16 03:02:59;;;;;;;8.38;5.15;;;;;;;;;;5023072;28;20045;-67
2022/03/16 03:05:25;;;;;;;12.02;5.20;;;;;;;;;;5013947;28;20030;-67
2022/03/16 03:07:51;;;;;;;12.02;6.05;;;;;;;;;;5022613;28;20103;-66
2022/03/16 03:10:17;;;;;;;15.88;6.13;;;;;;;;;;5029923;28;20033;-66
2022/03/16 03:12:43;;;;;;;20.02;5.88;;;;;;;;;;5029005;28;20040;-67
2022/03/16 03:15:13;;;;;;;11.98;5.95;;;;;;;;;;5021330;28;20064;-67
2022/03/16 03:17:40;;;;;;;11.90;6.13;;;;;;;;;;5020697;28;20029;-67
2022/03/16 03:20:06;;;;;;;12.25;6.03;;;;;;;;;;5024257;28;20056;-66
2022/03/16 03:22:32;;;;;;;13.88;5.85;;;;;;;;;;5028432;28;20034;-66
2022/03/16 03:24:58;;;;;;;13.23;6.45;;;;;;;;;;5022708;28;20456;-66
2022/03/16 03:27:24;;;;;;;9.13;5.60;;;;;;;;;;5024793;28;20053;-66
2022/03/16 03:29:50;;;;;;;11.88;6.43;;;;;;;;;;5019009;28;20035;-66
2022/03/16 03:32:17;;;;;;;11.27;5.22;;;;;;;;;;5025524;28;20425;-66
2022/03/16 03:34:47;;;;;;;9.55;6.10;;;;;;;;;;5017953;28;20057;-67
2022/03/16 03:37:14;;;;;;;11.90;6.10;;;;;;;;;;5020645;28;20038;-67
2022/03/16 03:39:41;;;;;;;9.38;5.68;;;;;;;;;;5027883;28;20022;-66
2022/03/16 03:42:07;;;;;;;10.60;5.80;;;;;;;;;;5023773;28;20084;-66
2022/03/16 03:44:36;;;;;;;7.40;5.57;;;;;;;;;;5023725;28;20116;-66
2022/03/16 03:47:05;;;;;;;10.02;5.45;;;;;;;;;;5023873;28;20026;-67
2022/03/16 03:49:32;;;;;;;15.00;5.38;;;;;;;;;;5028807;28;20070;-66
2022/03/16 03:51:58;;;;;;;12.05;5.97;;;;;;;;;;5033077;28;20035;-67
2022/03/16 03:54:24;;;;;;;13.15;6.07;;;;;;;;;;5024331;28;20033;-67
2022/03/16 03:56:49;;;;;;;13.23;5.55;;;;;;;;;;5020250;28;20083;-66
2022/03/16 03:59:15;;;;;;;13.88;6.95;;;;;;;;;;5014584;28;20104;-67
2022/03/16 04:01:40;;;;;;;7.88;5.13;;;;;;;;;;5019177;28;20022;-66
2022/03/16 04:04:07;;;;;;;10.35;5.60;;;;;;;;;;5015120;28;20025;-67
2022/03/16 04:06:33;;;;;;;15.52;6.03;;;;;;;;;;5023710;28;20140;-67
2022/03/16 04:08:59;;;;;;;8.68;5.80;;;;;;;;;;5018362;28;20049;-66
2022/03/16 04:11:25;;;;;;;10.32;5.70;;;;;;;;;;5018341;28;20079;-66
2022/03/16 04:14:11;;;;;;;10.60;6.03;;;;;;;;;;5024436;28;20051;-66
2022/03/16 04:16:56;;;;;;;12.50;5.53;;;;;;;;;;5017846;28;20483;-67
2022/03/16 04:19:41;;;;;;;15.55;5.82;;;;;;;;;;5021305;28;20411;-67
2022/03/16 04:22:28;;;;;;;13.60;6.30;;;;;;;;;;5018833;28;20061;-67
2022/03/16 04:25:13;;;;;;;13.52;5.93;;;;;;;;;;5026425;28;20038;-67
2022/03/16 04:27:59;;;;;;;16.02;6.20;;;;;;;;;;5021203;28;20037;-67
2022/03/16 04:30:44;;;;;;;11.02;5.63;;;;;;;;;;5017231;28;20737;-67
2022/03/16 04:33:29;;;;;;;15.20;5.85;;;;;;;;;;5026782;28;20040;-66
2022/03/16 04:36:13;;;;;;;11.48;6.03;;;;;;;;;;5022992;28;20056;-66
2022/03/16 04:38:57;;;;;;;12.80;7.13;;;;;;;;;;5022262;28;20389;-66
2022/03/16 04:41:41;;;;;;;14.85;6.80;;;;;;;;;;5021658;28;20087;-66
2022/03/16 04:44:25;;;;;;;11.90;6.13;;;;;;;;;;5014035;28;20092;-67
2022/03/16 04:46:51;;;;;;;11.00;6.15;;;;;;;;;;5014555;28;20025;-67
2022/03/16 04:49:17;;;;;;;11.77;6.05;;;;;;;;;;5027447;28;20493;-67
2022/03/16 04:51:42;;;;;;;12.57;6.15;;;;;;;;;;5021590;28;20430;-67
2022/03/16 04:54:08;;;;;;;14.55;6.35;;;;;;;;;;5020080;28;20033;-66
2022/03/16 04:56:35;;;;;;;14.75;6.30;;;;;;;;;;5021238;28;20087;-67
2022/03/16 04:59:01;;;;;;;11.82;6.03;;;;;;;;;;5015075;28;20407;-67
2022/03/16 05:01:27;;;;;;;13.77;6.13;;;;;;;;;;5022754;28;20113;-66
2022/03/16 05:03:53;;;;;;;10.48;6.18;;;;;;;;;;5020715;28;20112;-67
2022/03/16 05:06:19;;;;;;;9.20;6.20;;;;;;;;;;5023549;28;20492;-67
2022/03/16 05:08:47;;;;;;;9.70;6.43;;;;;;;;;;5025620;28;20397;-67
2022/03/16 05:11:13;;;;;;;19.40;6.75;;;;;;;;;;5021408;28;20029;-67
2022/03/16 05:13:39;;;;;;;11.23;6.03;;;;;;;;;;5022762;28;20479;-67
2022/03/16 05:16:06;;;;;;;10.73;6.53;;;;;;;;;;5023998;28;20076;-67
2022/03/16 05:18:33;;;;;;;16.23;6.65;;;;;;;;;;5022383;28;20471;-67
2022/03/16 05:20:59;;;;;;;12.27;6.28;;;;;;;;;;5014713;28;20471;-67
2022/03/16 05:23:25;;;;;;;10.80;5.90;;;;;;;;;;5018891;28;20029;-67
2022/03/16 05:25:51;;;;;;;9.20;6.47;;;;;;;;;;5016117;28;20041;-67
2022/03/16 05:28:17;;;;;;;11.43;5.82;;;;;;;;;;5024024;28;20037;-67
2022/03/16 05:30:43;;;;;;;14.00;6.75;;;;;;;;;;5010956;28;20049;-67
2022/03/16 05:33:09;;;;;;;12.85;6.15;;;;;;;;;;5019830;28;20079;-67
2022/03/16 05:35:35;;;;;;;9.52;6.00;;;;;;;;;;5015747;28;20437;-66
2022/03/16 05:38:02;;;;;;;15.35;6.25;;;;;;;;;;5017927;28;20026;-67
2022/03/16 05:40:28;;;;;;;10.93;6.28;;;;;;;;;;5015060;28;20073;-67
2022/03/16 05:42:54;;;;;;;14.07;6.25;;;;;;;;;;5025628;28;20069;-67
2022/03/16 05:45:21;;;;;;;10.57;6.32;;;;;;;;;;5018308;28;20028;-67
2022/03/16 05:47:47;;;;;;;13.27;6.40;;;;;;;;;;5020596;28;20112;-66
2022/03/16 05:50:12;;;;;;;23.55;7.20;;;;;;;;;;5021844;28;20118;-66
2022/03/16 05:52:40;;;;;;;13.15;6.78;;;;;;;;;;5019897;28;20471;-67
2022/03/16 05:55:07;;;;;;;13.80;6.25;;;;;;;;;;5020818;28;20098;-67
2022/03/16 05:57:36;;;;;;;13.02;6.68;;;;;;;;;;5016638;28;20072;-66
2022/03/16 06:00:02;;;;;;;15.98;7.65;;;;;;;;;;5013237;28;20479;-67
2022/03/16 06:02:32;;;;;;;14.45;6.30;;;;;;;;;;5016956;28;20026;-66
2022/03/16 06:04:58;;;;;;;12.00;6.50;;;;;;;;;;5013771;28;20064;-66
2022/03/16 06:07:24;;;;;;;13.93;6.15;;;;;;;;;;5016834;28;20026;-67
2022/03/16 06:09:49;;;;;;;11.50;6.90;;;;;;;;;;5022601;28;20531;-67
2022/03/16 06:12:15;;;;;;;19.15;6.55;;;;;;;;;;5021050;28;20032;-67
2022/03/16 06:14:40;;;;;;;16.48;7.03;;;;;;;;;;5014500;28;20069;-67
2022/03/16 06:17:06;;;;;;;13.35;6.88;;;;;;;;;;5015695;28;20053;-66
2022/03/16 06:19:32;;;;;;;12.00;6.75;;;;;;;;;;5027626;28;20030;-66
2022/03/16 06:21:57;;;;;;;15.23;6.50;;;;;;;;;;5023195;28;20379;-66
2022/03/16 06:24:23;;;;;;;12.50;6.75;;;;;;;;;;5027131;28;20036;-66
2022/03/16 06:26:49;;;;;;;11.02;6.28;;;;;;;;;;5029942;28;20440;-66
2022/03/16 06:29:15;;;;;;;14.27;7.30;;;;;;;;;;5022824;28;20048;-66
2022/03/16 06:31:40;;;;;;;18.15;6.78;;;;;;;;;;5027172;28;20049;-67
2022/03/16 06:34:06;;;;;;;15.70;6.68;;;;;;;;;;5023623;28;20084;-65
2022/03/16 06:36:32;;;;;;;9.30;6.05;;;;;;;;;;5017628;28;20049;-66
2022/03/16 06:38:57;;;;;;;11.07;6.68;;;;;;;;;;5015199;28;20121;-66
2022/03/16 06:41:23;;;;;;;17.05;6.65;;;;;;;;;;5016337;28;20034;-66
2022/03/16 06:43:49;;;;;;;13.13;6.35;;;;;;;;;;5022138;28;20025;-67
2022/03/16 06:46:15;;;;;;;13.40;6.13;;;;;;;;;;5024308;28;20041;-66
2022/03/16 06:48:41;;;;;;;12.05;6.68;;;;;;;;;;5027222;28;20025;-66
2022/03/16 06:51:07;;;;;;;13.77;6.90;;;;;;;;;;5024677;28;20384;-66
2022/03/16 06:53:33;;;;;;;11.82;6.50;;;;;;;;;;5018725;28;20034;-66
2022/03/16 06:55:59;;;;;;;16.08;7.22;;;;;;;;;;5019322;28;20034;-66
2022/03/16 06:58:25;;;;;;;16.58;7.30;;;;;;;;;;5018739;28;20022;-66
2022/03/16 07:00:50;;;;;;;13.75;6.95;;;;;;;;;;5022623;28;20100;-66
2022/03/16 07:03:16;;;;;;;18.42;8.15;;;;;;;;;;5031074;28;20068;-66
2022/03/16 07:05:42;;;;;;;14.35;7.35;;;;;;;;;;5029227;28;22563;-66
2022/03/16 07:08:10;;;;;;;13.73;6.93;;;;;;;;;;5017926;28;20038;-65
2022/03/16 07:10:38;;;;;;;16.08;6.75;;;;;;;;;;5028010;28;20091;-66
2022/03/16 07:13:04;;;;;;;12.13;7.00;;;;;;;;;;5022824;28;20035;-66
2022/03/16 07:15:32;;;;;;;16.35;7.13;;;;;;;;;;5025043;28;20053;-66
2022/03/16 07:17:58;;;;;;;34.55;8.43;;;;;;;;;;5020778;28;20052;-66
2022/03/16 07:20:24;;;;;;;30.58;8.57;;;;;;;;;;5023889;28;20036;-66
2022/03/16 07:23:17;;;;;;;15.82;8.23;;;;;;;;;;5024703;28;20030;-66
2022/03/16 07:25:44;;;;;;;18.35;8.10;;;;;;;;;;5023704;28;20572;-66
2022/03/16 07:28:11;;;;;;;17.58;8.50;;;;;;;;;;5017298;28;20034;-65
2022/03/16 07:30:38;;;;;;;14.95;7.88;;;;;;;;;;5017062;28;20048;-66
2022/03/16 07:33:05;;;;;;;14.57;8.18;;;;;;;;;;5021771;28;20509;-66
2022/03/16 07:35:31;;;;;;;18.30;8.43;;;;;;;;;;5018902;28;20053;-66
2022/03/16 07:37:58;;;;;;;18.20;8.45;;;;;;;;;;5029755;28;20113;-66
2022/03/16 07:40:24;;;;;;;19.27;8.20;;;;;;;;;;5020683;28;20026;-66
2022/03/16 07:42:51;;;;;;;14.90;8.27;;;;;;;;;;5034671;28;20391;-66
2022/03/16 07:45:18;;;;;;;15.18;7.90;;;;;;;;;;5020413;28;20029;-66
2022/03/16 07:47:46;;;;;;;19.08;7.25;;;;;;;;;;5022646;28;20083;-66
2022/03/16 07:50:12;;;;;;;15.35;7.50;;;;;;;;;;5022097;28;20022;-65
2022/03/16 07:52:38;;;;;;;19.35;6.97;;;;;;;;;;5025482;28;20030;-66
2022/03/16 07:55:04;;;;;;;16.90;7.05;;;;;;;;;;5026590;28;20037;-66
2022/03/16 07:57:30;;;;;;;19.13;7.03;;;;;;;;;;5018321;28;20481;-66
2022/03/16 07:59:56;;;;;;;17.25;7.22;;;;;;;;;;5025195;28;20026;-66
2022/03/16 08:02:22;;;;;;;11.05;6.40;;;;;;;;;;5020944;28;20100;-66
2022/03/16 08:04:48;;;;;;;17.88;7.25;;;;;;;;;;5021133;28;20386;-65
2022/03/16 08:07:13;;;;;;;17.08;7.25;;;;;;;;;;5027171;28;20037;-67
2022/03/16 08:09:39;;;;;;;11.82;6.28;;;;;;;;;;5027936;28;20028;-66
2022/03/16 08:12:05;;;;;;;14.77;6.78;;;;;;;;;;5026001;28;20029;-66
2022/03/16 08:14:31;;;;;;;14.90;6.50;;;;;;;;;;5017972;28;20446;-66
2022/03/16 08:16:57;;;;;;;15.77;6.57;;;;;;;;;;5025580;28;20034;-67
2022/03/16 08:19:22;;;;;;;11.50;6.40;;;;;;;;;;5019264;28;20517;-66
2022/03/16 08:21:48;;;;;;;13.20;5.97;;;;;;;;;;5023971;28;20069;-66
2022/03/16 08:24:14;;;;;;;16.35;6.15;;;;;;;;;;5018783;28;20026;-66
2022/03/16 08:26:40;;;;;;;14.68;5.60;;;;;;;;;;5014719;28;20104;-67
2022/03/16 08:29:07;;;;;;;9.50;5.32;;;;;;;;;;5015838;28;20133;-66
2022/03/16 08:31:34;;;;;;;14.45;6.32;;;;;;;;;;5017889;28;20471;-66
2022/03/16 08:34:01;;;;;;;11.52;6.20;;;;;;;;;;5018415;28;20491;-66
2022/03/16 08:36:27;;;;;;;16.70;5.78;;;;;;;;;;5015120;28;20033;-66
2022/03/16 08:38:52;;;;;;;10.23;5.65;;;;;;;;;;5013660;28;20034;-66
2022/03/16 08:41:18;;;;;;;12.13;6.15;;;;;;;;;;5023897;28;20017;-66
2022/03/16 08:43:45;;;;;;;9.75;5.18;;;;;;;;;;5028682;28;20056;-66
2022/03/16 08:46:10;;;;;;;9.50;5.22;;;;;;;;;;5022111;28;20092;-66
2022/03/16 08:48:37;;;;;;;15.75;6.05;;;;;;;;;;5022390;28;20025;-66
2022/03/16 08:51:03;;;;;;;11.68;5.47;;;;;;;;;;5022735;28;20436;-66
2022/03/16 08:53:29;;;;;;;11.88;6.32;;;;;;;;;;5022177;28;20025;-66
2022/03/16 08:55:55;;;;;;;15.32;6.13;;;;;;;;;;5015002;28;20041;-66
2022/03/16 08:58:21;;;;;;;13.95;6.40;;;;;;;;;;5020388;28;20029;-66
2022/03/16 09:00:47;;;;;;;13.48;6.13;;;;;;;;;;5020009;28;20091;-66
2022/03/16 09:03:12;;;;;;;14.52;7.13;;;;;;;;;;5022613;28;20029;-66
2022/03/16 09:05:38;;;;;;;15.25;6.70;;;;;;;;;;5025936;28;20049;-66
2022/03/16 09:08:04;;;;;;;19.20;6.70;;;;;;;;;;5018412;28;20033;-66
2022/03/16 09:10:30;;;;;;;18.20;6.47;;;;;;;;;;5020354;28;20065;-66
2022/03/16 09:12:56;;;;;;;12.98;6.70;;;;;;;;;;5021636;28;20040;-67
2022/03/16 09:15:22;;;;;;;12.88;6.45;;;;;;;;;;5023908;28;20103;-66
2022/03/16 09:17:47;;;;;;;9.80;6.45;;;;;;;;;;5015302;28;20066;-66
2022/03/16 09:20:13;;;;;;;14.10;6.80;;;;;;;;;;5022056;28;20052;-66
2022/03/16 09:22:39;;;;;;;17.55;8.07;;;;;;;;;;5020938;28;20025;-66
2022/03/16 09:25:07;;;;;;;18.63;7.20;;;;;;;;;;5025539;28;20033;-66
2022/03/16 09:27:35;;;;;;;14.35;6.43;;;;;;;;;;5018380;28;20471;-66
2022/03/16 09:30:00;;;;;;;22.35;7.15;;;;;;;;;;5021724;28;20038;-66
2022/03/16 09:32:27;;;;;;;11.43;6.63;;;;;;;;;;5021458;28;20034;-66
2022/03/16 09:34:53;;;;;;;12.32;6.68;;;;;;;;;;5015306;28;20048;-66
2022/03/16 09:37:19;;;;;;;17.38;7.35;;;;;;;;;;5021850;28;20037;-66
2022/03/16 09:39:44;;;;;;;13.88;7.63;;;;;;;;;;5022682;28;20029;-66
2022/03/16 09:42:10;;;;;;;16.23;7.65;;;;;;;;;;5022904;28;20140;-66
2022/03/16 09:44:37;;;;;;;16.90;6.47;;;;;;;;;;5025069;28;20108;-66
2022/03/16 09:47:04;;;;;;;21.10;7.68;;;;;;;;;;5020535;28;20044;-66
2022/03/16 09:49:31;;;;;;;15.32;7.47;;;;;;;;;;5013003;28;20160;-66
2022/03/16 09:51:59;;;;;;;39.03;8.80;;;;;;;;;;5028052;28;20040;-66
2022/03/16 09:54:25;;;;;;;21.90;9.07;;;;;;;;;;5029035;28;20032;-66
2022/03/16 09:56:52;;;;;;;20.77;9.63;;;;;;;;;;5028378;28;20057;-67
2022/03/16 09:59:20;;;;;;;27.17;9.65;;;;;;;;;;5021746;28;20348;-66
2022/03/16 10:01:45;;;;;;;21.35;9.65;;;;;;;;;;5022851;28;20034;-66
2022/03/16 10:04:11;;;;;;;25.55;8.77;;;;;;;;;;5029683;28;20053;-66
2022/03/16 10:06:38;;;;;;;21.00;9.48;;;;;;;;;;5032422;28;20049;-66
2022/03/16 10:15:01;;;;;;;26.45;10.02;;;;;;;;;;5017046;28;20029;-66
2022/03/16 10:17:44;;;;;;;25.92;8.85;;;;;;;;;;5016531;28;20727;-66
2022/03/16 10:20:21;;;;;;;20.45;8.80;;;;;;;;;;5024860;28;20533;-66
2022/03/16 10:22:59;;;;;;;26.20;9.77;;;;;;;;;;5020736;28;20037;-65
2022/03/16 10:25:30;;;;;;;23.05;9.27;;;;;;;;;;5020690;28;20497;-66
2022/03/16 10:28:12;;;;;;;25.80;10.27;;;;;;;;;;5019068;28;20553;-66
2022/03/16 10:30:57;;;;;;;27.00;11.85;;;;;;;;;;5016921;28;20026;-66
2022/03/16 10:33:32;;;;;;;18.77;10.68;;;;;;;;;;5025747;28;20021;-66
2022/03/16 10:36:06;;;;;;;25.67;11.02;;;;;;;;;;5021793;28;20044;-66
2022/03/16 10:38:58;;;;;;;29.25;11.27;;;;;;;;;;5015444;28;20577;-67
2022/03/16 10:47:01;;;;;;;25.92;9.15;;;;;;;;;;5021291;28;20061;-66
2022/03/16 10:49:32;;;;;;;18.48;8.50;;;;;;;;;;5033772;28;20029;-65
2022/03/16 10:52:06;;;;;;;18.70;8.40;;;;;;;;;;5027039;28;20144;-66
2022/03/16 10:54:33;;;;;;;22.48;8.18;;;;;;;;;;5021947;28;20059;-66
2022/03/16 10:57:01;;;;;;;26.67;8.30;;;;;;;;;;5025075;28;20568;-66
2022/03/16 10:59:30;;;;;;;15.13;8.15;;;;;;;;;;5019933;28;20506;-65
2022/03/16 11:02:04;;;;;;;29.05;8.93;;;;;;;;;;5018738;28;20038;-66
2022/03/16 11:04:32;;;;;;;22.40;8.80;;;;;;;;;;5020953;28;20017;-66
2022/03/16 11:06:59;;;;;;;16.33;8.02;;;;;;;;;;5021685;28;20030;-66
2022/03/16 11:09:26;;;;;;;21.75;8.23;;;;;;;;;;5021758;28;20083;-67
2022/03/16 11:14:37;;;;;;;24.05;8.02;;;;;;;;;;5019517;28;20592;-66
2022/03/16 11:17:03;;;;;;;16.08;8.30;;;;;;;;;;5020988;28;20045;-67
2022/03/16 11:19:30;;;;;;;12.65;7.45;;;;;;;;;;5027348;28;20104;-66
2022/03/16 11:22:04;;;;;;;14.63;7.75;;;;;;;;;;5024256;28;20044;-67
2022/03/16 11:24:35;;;;;;;17.33;7.85;;;;;;;;;;5028163;28;20037;-67
2022/03/16 11:27:09;;;;;;;22.48;7.60;;;;;;;;;;5023664;28;20037;-67
2022/03/16 11:29:53;;;;;;;20.15;7.90;;;;;;;;;;5022286;28;20475;-66
2022/03/16 11:32:20;;;;;;;17.35;7.78;;;;;;;;;;5023232;28;20025;-67
2022/03/16 11:35:00;;;;;;;24.50;8.43;;;;;;;;;;5024157;28;20050;-67
2022/03/16 11:37:51;;;;;;;14.80;8.10;;;;;;;;;;5022712;28;20029;-67
2022/03/16 11:40:22;;;;;;;20.40;8.10;;;;;;;;;;5018047;28;20045;-67
2022/03/16 11:43:14;;;;;;;19.15;9.25;;;;;;;;;;5017537;28;20109;-65
2022/03/16 11:45:51;;;;;;;12.30;7.75;;;;;;;;;;5026056;28;20061;-66
2022/03/16 11:48:33;;;;;;;22.73;9.30;;;;;;;;;;5023591;28;20026;-67
2022/03/16 11:51:13;;;;;;;19.10;7.82;;;;;;;;;;5013852;28;20129;-66
2022/03/16 11:53:58;;;;;;;18.67;8.68;;;;;;;;;;5027818;28;20041;-66
2022/03/16 11:56:36;;;;;;;15.80;7.03;;;;;;;;;;5014369;28;20044;-66
2022/03/16 11:59:10;;;;;;;14.82;6.47;;;;;;;;;;5016148;28;20585;-66
2022/03/16 12:01:39;;;;;;;12.90;6.32;;;;;;;;;;5024636;28;20109;-67
2022/03/16 12:04:19;;;;;;;11.65;6.55;;;;;;;;;;5019014;28;20029;-66
2022/03/16 12:07:02;;;;;;;15.30;7.90;;;;;;;;;;5028086;28;20764;-66
2022/03/16 12:09:49;;;;;;;16.75;6.97;;;;;;;;;;5023199;28;20041;-65
2022/03/16 12:15:11;;;;;;;15.70;8.00;;;;;;;;;;5017734;28;20116;-66
2022/03/16 12:17:41;;;;;;;20.33;7.53;;;;;;;;;;5014766;28;20026;-66
2022/03/16 12:20:24;;;;;;;24.95;7.13;;;;;;;;;;5016240;28;20018;-65
2022/03/16 12:22:54;;;;;;;21.00;7.47;;;;;;;;;;5018837;28;20030;-66
2022/03/16 12:25:22;;;;;;;14.65;7.25;;;;;;;;;;5026673;28;20028;-66
2022/03/16 12:30:43;;;;;;;18.20;8.35;;;;;;;;;;5013713;28;20034;-66
2022/03/16 12:33:20;;;;;;;17.55;7.75;;;;;;;;;;5015539;28;20026;-66
2022/03/16 12:35:49;;;;;;;17.25;8.18;;;;;;;;;;5022820;28;20060;-67
2022/03/16 12:38:15;;;;;;;16.33;8.02;;;;;;;;;;5024375;28;20113;-67
2022/03/16 12:43:27;;;;;;;14.55;7.68;;;;;;;;;;5022824;28;20038;-67
2022/03/16 12:46:06;;;;;;;16.70;7.88;;;;;;;;;;5018891;28;20025;-67
2022/03/16 12:48:35;;;;;;;20.42;8.35;;;;;;;;;;5023753;28;20030;-67
2022/03/16 12:51:01;;;;;;;15.70;7.70;;;;;;;;;;5019533;28;20048;-67
2022/03/16 12:53:54;;;;;;;13.70;7.10;;;;;;;;;;5022522;28;20521;-66
2022/03/16 12:56:19;;;;;;;20.15;8.25;;;;;;;;;;5014289;28;20430;-67
2022/03/16 12:58:52;;;;;;;20.63;8.40;;;;;;;;;;5013898;28;20026;-67
2022/03/16 13:01:19;;;;;;;25.52;7.65;;;;;;;;;;5020932;28;20026;-67
2022/03/16 13:03:45;;;;;;;18.10;7.10;;;;;;;;;;5017947;28;20026;-67
2022/03/16 13:06:18;;;;;;;18.92;6.85;;;;;;;;;;5019072;28;20411;-67
2022/03/16 13:08:50;;;;;;;18.02;7.20;;;;;;;;;;5019565;28;20820;-67
2022/03/16 13:11:28;;;;;;;24.48;7.18;;;;;;;;;;5016237;28;20026;-68
2022/03/16 13:14:07;;;;;;;29.33;8.27;;;;;;;;;;5011354;28;20033;-68
2022/03/16 13:16:35;;;;;;;18.63;7.90;;;;;;;;;;5021607;28;20068;-67
2022/03/16 13:19:03;;;;;;;19.48;7.65;;;;;;;;;;5029709;28;20033;-68
2022/03/16 13:21:30;;;;;;;16.95;7.00;;;;;;;;;;5030460;28;20429;-67
2022/03/16 13:24:04;;;;;;;17.75;7.88;;;;;;;;;;5021477;28;20112;-68
2022/03/16 13:26:30;;;;;;;17.63;7.53;;;;;;;;;;5016094;28;20040;-67
2022/03/16 13:28:58;;;;;;;23.70;7.80;;;;;;;;;;5014587;28;20490;-67
2022/03/16 13:31:31;;;;;;;19.67;6.95;;;;;;;;;;5025038;28;20033;-67
2022/03/16 13:34:05;;;;;;;17.38;7.72;;;;;;;;;;5019346;28;20038;-67
2022/03/16 13:36:48;;;;;;;16.60;6.40;;;;;;;;;;5022080;28;20049;-68
2022/03/16 13:39:20;;;;;;;14.70;6.03;;;;;;;;;;5024232;28;20041;-68
2022/03/16 13:42:04;;;;;;;18.65;7.20;;;;;;;;;;5017689;28;20677;-67
2022/03/16 13:44:52;;;;;;;17.25;7.03;;;;;;;;;;5012064;28;20490;-68
2022/03/16 13:47:20;;;;;;;25.95;7.57;;;;;;;;;;5020078;28;20494;-68
2022/03/16 13:49:55;;;;;;;23.60;7.68;;;;;;;;;;5024990;28;20479;-67
2022/03/16 13:52:25;;;;;;;17.60;8.05;;;;;;;;;;5021675;28;20037;-67
2022/03/16 13:54:52;;;;;;;19.45;7.45;;;;;;;;;;5024184;28;20034;-68
2022/03/16 13:57:22;;;;;;;19.88;6.32;;;;;;;;;;5017008;28;20358;-67
2022/03/16 13:59:57;;;;;;;15.90;6.82;;;;;;;;;;5017702;28;20441;-67
2022/03/16 14:02:25;;;;;;;22.65;7.60;;;;;;;;;;5016697;28;20053;-68
2022/03/16 14:05:02;;;;;;;33.13;7.85;;;;;;;;;;5018282;28;20034;-66
2022/03/16 14:07:30;;;;;;;17.10;7.82;;;;;;;;;;5025989;28;20418;-66
2022/03/16 14:09:58;;;;;;;20.02;7.25;;;;;;;;;;5018972;28;20038;-66
2022/03/16 14:12:26;;;;;;;21.83;7.82;;;;;;;;;;5024787;28;20022;-66
2022/03/16 14:15:17;;;;;;;20.38;8.52;;;;;;;;;;5021213;28;20033;-66
2022/03/16 14:17:54;;;;;;;22.63;8.38;;;;;;;;;;5015636;28;20064;-67
2022/03/16 14:20:26;;;;;;;26.90;7.10;;;;;;;;;;5023969;28;20495;-67
2022/03/16 14:22:54;;;;;;;20.30;8.73;;;;;;;;;;5017052;28;20088;-66
2022/03/16 14:25:25;;;;;;;20.48;9.00;;;;;;;;;;5019155;28;20030;-67
2022/03/16 14:27:53;;;;;;;17.77;6.95;;;;;;;;;;5013137;28;20037;-67
2022/03/16 14:30:21;;;;;;;23.55;6.20;;;;;;;;;;5023386;28;20486;-67
2022/03/16 14:32:49;;;;;;;13.20;6.85;;;;;;;;;;5020305;28;20099;-67
2022/03/16 14:35:20;;;;;;;18.17;6.90;;;;;;;;;;5012905;28;20057;-67
2022/03/16 14:37:46;;;;;;;17.75;7.07;;;;;;;;;;5023350;28;21037;-67
2022/03/16 14:40:15;;;;;;;17.90;6.13;;;;;;;;;;5016391;28;20037;-66
2022/03/16 14:42:42;;;;;;;16.13;7.50;;;;;;;;;;5017343;28;20029;-67
2022/03/16 14:45:08;;;;;;;36.25;9.25;;;;;;;;;;5026161;28;20033;-67
2022/03/16 14:47:34;;;;;;;18.60;7.65;;;;;;;;;;5017787;28;20045;-66
2022/03/16 14:50:01;;;;;;;14.50;7.65;;;;;;;;;;5014552;28;20030;-67
2022/03/16 14:52:28;;;;;;;18.83;7.55;;;;;;;;;;5021530;28;20076;-67
2022/03/16 14:54:54;;;;;;;19.08;8.70;;;;;;;;;;5019996;28;20039;-66
2022/03/16 14:57:19;;;;;;;25.58;9.20;;;;;;;;;;5025966;28;20028;-67
2022/03/16 14:59:46;;;;;;;23.60;8.73;;;;;;;;;;5021848;28;20498;-67
2022/03/16 15:02:12;;;;;;;17.52;8.48;;;;;;;;;;5028227;28;20482;-67